createdAt,value
2023-07-02T00:02:06.078Z,100787.06
2023-07-02T00:04:32.644Z,100777.50
2023-07-02T00:06:59.734Z,100770.38
2023-07-02T00:09:26.355Z,100757.13
2023-07-02T00:11:52.912Z,100766.50
2023-07-02T00:14:19.471Z,100776.63
2023-07-02T00:16:47.391Z,100776.91
2023-07-02T00:19:17.739Z,100780.88
2023-07-02T00:21:44.693Z,100793.66
2023-07-02T00:24:11.565Z,100799.00
2023-07-02T00:26:39.418Z,100800.56
2023-07-02T00:29:07.239Z,100810.44
2023-07-02T00:31:34.678Z,100797.41
2023-07-02T00:34:05.163Z,100802.16
2023-07-02T00:36:32.460Z,100804.56
2023-07-02T00:38:59.754Z,100799.75
2023-07-02T00:41:26.439Z,100799.22
2023-07-02T00:43:55.449Z,100802.69
2023-07-02T00:46:23.910Z,100805.38
2023-07-02T00:48:52.317Z,100813.41
2023-07-02T00:51:22.117Z,100810.75
2023-07-02T00:53:50.475Z,100810.19
2023-07-02T00:56:17.752Z,100808.69
2023-07-02T00:58:49.702Z,100812.41
2023-07-02T01:01:17.692Z,100809.75
2023-07-02T01:03:54.886Z,100816.13
2023-07-02T01:06:27.579Z,100819.06
2023-07-02T01:09:02.124Z,100818.88
2023-07-02T01:11:32.617Z,100814.06
2023-07-02T01:14:23.133Z,100812.75
2023-07-02T01:16:51.491Z,100816.75
2023-07-02T01:19:26.625Z,100815.19
2023-07-02T01:21:53.388Z,100818.94
2023-07-02T01:24:22.302Z,100818.97
2023-07-02T01:26:49.173Z,100817.66
2023-07-02T01:29:20.894Z,100817.41
2023-07-02T01:31:48.632Z,100816.47
2023-07-02T01:34:15.599Z,100822.88
2023-07-02T01:36:42.351Z,100819.16
2023-07-02T01:39:09.043Z,100821.56
2023-07-02T01:41:43.893Z,100824.50
2023-07-02T01:44:10.565Z,100822.66
2023-07-02T01:46:37.199Z,100821.41
2023-07-02T01:49:03.811Z,100825.41
2023-07-02T01:51:30.365Z,100821.97
2023-07-02T01:53:56.890Z,100827.81
2023-07-02T01:56:23.470Z,100830.50
2023-07-02T01:58:50.051Z,100822.25
2023-07-02T02:01:16.671Z,100830.81
2023-07-02T02:03:43.358Z,100832.94
2023-07-02T02:06:10.038Z,100830.56
2023-07-02T02:08:36.593Z,100834.78
2023-07-02T02:11:03.309Z,100839.03
2023-07-02T02:13:29.958Z,100837.44
2023-07-02T02:15:56.589Z,100836.38
2023-07-02T02:18:23.167Z,100835.06
2023-07-02T02:20:50.551Z,100836.66
2023-07-02T02:23:17.302Z,100838.56
2023-07-02T02:25:43.810Z,100835.63
2023-07-02T02:28:10.295Z,100836.69
2023-07-02T02:30:38.077Z,100842.81
2023-07-02T02:33:04.655Z,100841.75
2023-07-02T02:35:31.177Z,100842.81
2023-07-02T02:37:57.887Z,100848.09
2023-07-02T02:40:24.469Z,100853.69
2023-07-02T02:42:50.971Z,100847.06
2023-07-02T02:45:17.504Z,100849.97
2023-07-02T02:47:44.110Z,100851.31
2023-07-02T02:50:13.867Z,100858.19
2023-07-02T02:52:40.613Z,100860.56
2023-07-02T02:55:08.911Z,100854.72
2023-07-02T02:57:35.465Z,100858.69
2023-07-02T03:00:02.052Z,100850.75
2023-07-02T03:02:29.018Z,100858.19
2023-07-02T03:04:57.727Z,100862.16
2023-07-02T03:07:24.363Z,100862.41
2023-07-02T03:09:50.917Z,100866.66
2023-07-02T03:12:17.431Z,100865.34
2023-07-02T03:14:44.208Z,100860.03
2023-07-02T03:17:10.696Z,100864.53
2023-07-02T03:19:37.365Z,100871.97
2023-07-02T03:22:03.945Z,100878.31
2023-07-02T03:24:30.493Z,100875.38
2023-07-02T03:26:57.075Z,100870.88
2023-07-02T03:29:23.584Z,100876.47
2023-07-02T03:31:50.088Z,100870.88
2023-07-02T03:34:16.767Z,100875.13
2023-07-02T03:36:43.319Z,100883.34
2023-07-02T03:39:10.897Z,100877.78
2023-07-02T03:41:37.642Z,100882.03
2023-07-02T03:44:04.376Z,100887.31
2023-07-02T03:46:32.281Z,100888.91
2023-07-02T03:48:59.177Z,100885.72
2023-07-02T03:51:25.905Z,100892.06
2023-07-02T03:53:52.671Z,100897.38
2023-07-02T03:56:19.274Z,100890.22
2023-07-02T03:58:45.874Z,100903.22
2023-07-02T04:01:14.674Z,100898.97
2023-07-02T04:03:50.466Z,100893.97
2023-07-02T04:06:17.742Z,100905.34
2023-07-02T04:08:44.938Z,100911.19
2023-07-02T04:11:12.801Z,100904.81
2023-07-02T04:13:40.407Z,100905.91
2023-07-02T04:16:07.202Z,100903.81
2023-07-02T04:18:34.007Z,100897.19
2023-07-02T04:21:02.969Z,100904.63
2023-07-02T04:23:29.509Z,100918.91
2023-07-02T04:26:12.618Z,100912.31
2023-07-02T04:28:43.497Z,100920.00
2023-07-02T04:31:10.140Z,100913.63
2023-07-02T04:33:37.396Z,100918.69
2023-07-02T04:36:05.011Z,100912.06
2023-07-02T04:38:31.727Z,100926.09
2023-07-02T04:41:06.515Z,100925.56
2023-07-02T04:43:34.586Z,100925.56
2023-07-02T04:46:01.477Z,100930.91
2023-07-02T04:48:28.530Z,100933.56
2023-07-02T04:50:55.421Z,100936.22
2023-07-02T04:53:21.957Z,100924.50
2023-07-02T04:55:48.511Z,100925.56
2023-07-02T04:58:15.154Z,100935.66
2023-07-02T05:00:41.692Z,100940.41
2023-07-02T05:03:08.380Z,100940.41
2023-07-02T05:05:35.080Z,100946.50
2023-07-02T05:08:01.626Z,100945.44
2023-07-02T05:10:28.152Z,100948.59
2023-07-02T05:12:54.736Z,100944.34
2023-07-02T05:15:21.284Z,100940.59
2023-07-02T05:17:47.952Z,100947.75
2023-07-02T05:20:14.514Z,100950.38
2023-07-02T05:22:41.009Z,100947.66
2023-07-02T05:25:07.921Z,100951.47
2023-07-02T05:27:34.565Z,100941.56
2023-07-02T05:30:01.091Z,100954.03
2023-07-02T05:32:27.633Z,100948.81
2023-07-02T05:34:54.166Z,100945.16
2023-07-02T05:37:20.915Z,100953.44
2023-07-02T05:39:47.437Z,100963.56
2023-07-02T05:42:13.962Z,100968.34
2023-07-02T05:44:40.528Z,100968.91
2023-07-02T05:47:07.282Z,100959.84
2023-07-02T05:49:34.116Z,100959.84
2023-07-02T05:52:00.767Z,100964.38
2023-07-02T05:54:27.369Z,100972.06
2023-07-02T05:56:53.850Z,100970.22
2023-07-02T05:59:20.438Z,100969.69
2023-07-02T06:01:47.112Z,100978.19
2023-07-02T06:04:13.706Z,100976.88
2023-07-02T06:06:40.379Z,100979.00
2023-07-02T06:09:06.912Z,100983.00
2023-07-02T06:11:33.564Z,100978.72
2023-07-02T06:14:52.972Z,100981.13
2023-07-02T06:17:19.818Z,100989.09
2023-07-02T06:19:46.447Z,100984.81
2023-07-02T06:22:13.006Z,100989.59
2023-07-02T06:24:39.535Z,100992.72
2023-07-02T06:27:06.136Z,100988.22
2023-07-02T06:29:32.680Z,100992.97
2023-07-02T06:32:00.914Z,100997.75
2023-07-02T06:34:27.619Z,101006.50
2023-07-02T06:36:54.163Z,100998.75
2023-07-02T06:39:20.872Z,101000.09
2023-07-02T06:41:47.487Z,100997.72
2023-07-02T06:44:14.039Z,101007.84
2023-07-02T06:46:40.777Z,101006.25
2023-07-02T06:49:07.764Z,101008.69
2023-07-02T06:51:35.350Z,101017.75
2023-07-02T06:54:01.904Z,101012.34
2023-07-02T06:56:28.422Z,101017.63
2023-07-02T06:58:55.013Z,101018.66
2023-07-02T07:01:21.571Z,101020.19
2023-07-02T07:03:48.244Z,101031.94
2023-07-02T07:06:14.789Z,101029.00
2023-07-02T07:08:41.357Z,101043.59
2023-07-02T07:11:07.982Z,101047.28
2023-07-02T07:13:34.579Z,101045.91
2023-07-02T07:16:01.141Z,101045.53
2023-07-02T07:18:29.694Z,101048.78
2023-07-02T07:20:57.868Z,101048.78
2023-07-02T07:23:24.437Z,101052.19
2023-07-02T07:25:51.153Z,101045.81
2023-07-02T07:28:17.968Z,101048.44
2023-07-02T07:30:44.780Z,101060.84
2023-07-02T07:33:11.677Z,101063.72
2023-07-02T07:35:38.368Z,101063.78
2023-07-02T07:38:04.933Z,101068.13
2023-07-02T07:40:31.458Z,101069.41
2023-07-02T07:42:57.929Z,101069.09
2023-07-02T07:45:24.547Z,101071.47
2023-07-02T07:47:51.112Z,101075.19
2023-07-02T07:50:17.817Z,101066.34
2023-07-02T07:52:44.443Z,101068.63
2023-07-02T07:55:11.170Z,101070.13
2023-07-02T07:57:38.589Z,101070.63
2023-07-02T08:00:09.048Z,101079.03
2023-07-02T08:02:35.808Z,101073.28
2023-07-02T08:05:03.756Z,101082.69
2023-07-02T08:07:30.417Z,101086.38
2023-07-02T08:09:56.938Z,101080.47
2023-07-02T08:12:23.588Z,101081.16
2023-07-02T08:14:50.444Z,101085.50
2023-07-02T08:17:16.946Z,101094.72
2023-07-02T08:19:43.580Z,101082.16
2023-07-02T08:22:10.195Z,101080.13
2023-07-02T08:24:36.815Z,101092.94
2023-07-02T08:27:06.336Z,101100.97
2023-07-02T08:29:33.151Z,101086.75
2023-07-02T08:31:59.976Z,101101.34
2023-07-02T08:34:26.620Z,101100.09
2023-07-02T08:36:53.363Z,101098.91
2023-07-02T08:39:19.912Z,101101.91
2023-07-02T08:41:48.497Z,101106.22
2023-07-02T08:44:22.113Z,101104.47
2023-07-02T08:46:51.958Z,101108.69
2023-07-02T08:49:18.975Z,101101.34
2023-07-02T08:51:46.820Z,101115.69
2023-07-02T08:54:13.809Z,101108.19
2023-07-02T08:56:40.899Z,101114.38
2023-07-02T08:59:09.225Z,101123.41
2023-07-02T09:01:56.392Z,101112.19
2023-07-02T09:04:27.148Z,101112.28
2023-07-02T09:07:07.365Z,101114.25
2023-07-02T09:09:34.454Z,101121.72
2023-07-02T09:12:01.628Z,101127.44
2023-07-02T09:14:32.513Z,101123.06
2023-07-02T09:17:17.332Z,101130.19
2023-07-02T09:19:52.983Z,101124.41
2023-07-02T09:22:19.529Z,101134.00
2023-07-02T09:24:59.086Z,101115.97
2023-07-02T09:27:44.835Z,101121.69
2023-07-02T09:30:18.818Z,101125.94
2023-07-02T09:32:47.040Z,101117.06
2023-07-02T09:35:15.271Z,101120.66
2023-07-02T09:37:46.096Z,101114.78
2023-07-02T09:40:13.397Z,101122.59
2023-07-02T09:42:41.665Z,101124.97
2023-07-02T09:45:09.742Z,101112.72
2023-07-02T09:47:42.801Z,101127.53
2023-07-02T09:50:11.464Z,101121.97
2023-07-02T09:52:38.774Z,101124.63
2023-07-02T09:55:05.832Z,101124.28
2023-07-02T09:57:32.749Z,101126.66
2023-07-02T10:00:01.799Z,101120.06
2023-07-02T10:02:28.521Z,101116.13
2023-07-02T10:04:56.434Z,101118.25
2023-07-02T10:07:30.974Z,101117.22
2023-07-02T10:09:58.043Z,101134.53
2023-07-02T10:12:31.381Z,101123.53
2023-07-02T10:14:59.999Z,101127.06
2023-07-02T10:17:30.588Z,101126.09
2023-07-02T10:20:02.278Z,101138.44
2023-07-02T10:22:29.082Z,101143.94
2023-07-02T10:25:03.248Z,101138.50
2023-07-02T10:27:48.720Z,101135.84
2023-07-02T10:30:15.823Z,101143.19
2023-07-02T10:32:45.223Z,101145.25
2023-07-02T10:35:17.132Z,101144.06
2023-07-02T10:37:44.634Z,101142.69
2023-07-02T10:40:12.398Z,101148.66
2023-07-02T10:42:50.756Z,101149.91
2023-07-02T10:45:17.582Z,101148.47
2023-07-02T10:47:44.497Z,101151.56
2023-07-02T10:50:18.136Z,101143.44
2023-07-02T10:52:44.803Z,101150.94
2023-07-02T10:55:11.349Z,101152.13
2023-07-02T10:57:38.016Z,101153.81
2023-07-02T11:00:06.466Z,101155.13
2023-07-02T11:02:39.762Z,101158.41
2023-07-02T11:05:07.881Z,101161.75
2023-07-02T11:07:34.815Z,101154.97
2023-07-02T11:10:03.359Z,101162.84
2023-07-02T11:12:33.356Z,101161.84
2023-07-02T11:15:14.536Z,101171.16
2023-07-02T11:17:43.910Z,101172.78
2023-07-02T11:20:12.585Z,101167.97
2023-07-02T11:22:40.113Z,101168.34
2023-07-02T11:25:23.446Z,101162.22
2023-07-02T11:27:57.719Z,101170.94
2023-07-02T11:30:33.561Z,101167.69
2023-07-02T11:33:11.025Z,101175.50
2023-07-02T11:35:37.787Z,101166.16
2023-07-02T11:38:09.360Z,101173.38
2023-07-02T11:40:35.959Z,101170.88
2023-07-02T11:43:05.010Z,101174.16
2023-07-02T11:45:31.990Z,101159.88
2023-07-02T11:48:01.277Z,101162.41
2023-07-02T11:50:28.268Z,101164.38
2023-07-02T11:52:57.004Z,101170.91
2023-07-02T11:55:23.727Z,101171.94
2023-07-02T11:58:00.716Z,101158.97
2023-07-02T12:00:28.141Z,101171.53
2023-07-02T12:02:54.946Z,101177.13
2023-07-02T12:05:26.809Z,101177.31
2023-07-02T12:07:53.859Z,101174.44
2023-07-02T12:10:20.845Z,101180.03
2023-07-02T12:12:47.418Z,101181.63
2023-07-02T12:15:16.468Z,101184.72
2023-07-02T12:17:43.147Z,101179.44
2023-07-02T12:20:10.413Z,101194.31
2023-07-02T12:22:37.288Z,101191.09
2023-07-02T12:25:04.332Z,101182.28
2023-07-02T12:27:31.102Z,101194.00
2023-07-02T12:29:57.968Z,101197.47
2023-07-02T12:32:24.562Z,101188.84
2023-07-02T12:34:51.253Z,101193.28
2023-07-02T12:37:20.027Z,101198.94
2023-07-02T12:39:49.293Z,101182.97
2023-07-02T12:42:15.882Z,101178.94
2023-07-02T12:44:42.549Z,101181.88
2023-07-02T12:47:35.037Z,101181.47
2023-07-02T12:50:02.196Z,101187.97
2023-07-02T12:52:30.702Z,101192.91
2023-07-02T12:54:57.803Z,101196.47
2023-07-02T13:00:00.995Z,101193.47
2023-07-02T13:02:30.319Z,101189.41
2023-07-02T13:04:57.106Z,101193.38
2023-07-02T13:07:25.207Z,101203.00
2023-07-02T13:09:51.772Z,101211.44
2023-07-02T13:12:19.270Z,101204.63
2023-07-02T13:14:45.851Z,101201.63
2023-07-02T13:17:12.482Z,101205.91
2023-07-02T13:19:39.131Z,101202.50
2023-07-02T13:22:06.286Z,101203.81
2023-07-02T13:24:38.644Z,101215.91
2023-07-02T13:27:10.979Z,101210.34
2023-07-02T13:29:37.642Z,101198.56
2023-07-02T13:32:04.676Z,101215.72
2023-07-02T13:34:31.256Z,101211.63
2023-07-02T13:36:57.849Z,101205.00
2023-07-02T13:39:24.511Z,101206.94
2023-07-02T13:41:51.753Z,101217.00
2023-07-02T13:44:18.743Z,101208.34
2023-07-02T13:46:46.682Z,101202.66
2023-07-02T13:49:13.317Z,101215.56
2023-07-02T13:51:39.894Z,101213.78
2023-07-02T13:54:06.496Z,101218.75
2023-07-02T13:56:33.162Z,101225.03
2023-07-02T13:59:02.165Z,101219.88
2023-07-02T14:01:29.020Z,101218.22
2023-07-02T14:03:55.975Z,101213.34
2023-07-02T14:06:22.828Z,101219.06
2023-07-02T14:08:49.529Z,101219.78
2023-07-02T14:11:16.257Z,101216.19
2023-07-02T14:13:42.917Z,101224.34
2023-07-02T14:16:09.657Z,101218.00
2023-07-02T14:18:36.290Z,101205.69
2023-07-02T14:21:05.027Z,101209.84
2023-07-02T14:23:31.690Z,101216.94
2023-07-02T14:25:58.262Z,101209.66
2023-07-02T14:28:27.109Z,101224.84
2023-07-02T14:30:59.133Z,101219.88
2023-07-02T14:33:26.772Z,101224.25
2023-07-02T14:35:53.444Z,101233.88
2023-07-02T14:38:20.215Z,101225.94
2023-07-02T14:40:48.196Z,101228.00
2023-07-02T14:43:14.966Z,101225.75
2023-07-02T14:45:49.013Z,101225.75
2023-07-02T14:48:16.995Z,101223.94
2023-07-02T14:50:45.847Z,101232.28
2023-07-02T14:53:12.871Z,101230.69
2023-07-02T14:55:40.957Z,101225.84
2023-07-02T14:58:08.174Z,101228.72
2023-07-02T15:00:36.390Z,101219.19
2023-07-02T15:03:03.381Z,101225.03
2023-07-02T15:05:30.443Z,101223.06
2023-07-02T15:07:57.150Z,101218.59
2023-07-02T15:10:23.739Z,101216.41
2023-07-02T15:12:50.343Z,101221.47
2023-07-02T15:15:17.770Z,101219.38
2023-07-02T15:17:44.654Z,101210.66
2023-07-02T15:20:11.944Z,101219.78
2023-07-02T15:22:38.790Z,101212.13
2023-07-02T15:25:06.289Z,101211.66
2023-07-02T15:27:32.981Z,101210.97
2023-07-02T15:29:59.660Z,101200.94
2023-07-02T15:32:26.349Z,101213.91
2023-07-02T15:34:53.872Z,101197.75
2023-07-02T15:37:20.512Z,101199.75
2023-07-02T15:39:47.120Z,101203.41
2023-07-02T15:42:13.694Z,101196.53
2023-07-02T15:44:40.356Z,101202.16
2023-07-02T15:47:07.343Z,101196.25
2023-07-02T15:49:34.009Z,101205.41
2023-07-02T15:52:00.547Z,101195.78
2023-07-02T15:54:27.162Z,101200.44
2023-07-02T15:56:53.775Z,101201.63
2023-07-02T15:59:20.481Z,101200.63
2023-07-02T16:01:50.118Z,101194.81
2023-07-02T16:04:17.314Z,101200.44
2023-07-02T16:06:45.478Z,101203.13
2023-07-02T16:09:12.088Z,101195.97
2023-07-02T16:11:42.975Z,101196.69
2023-07-02T16:14:16.828Z,101193.22
2023-07-02T16:16:46.325Z,101198.66
2023-07-02T16:19:16.150Z,101192.41
2023-07-02T16:21:43.246Z,101192.31
2023-07-02T16:24:21.275Z,101180.72
2023-07-02T16:26:48.742Z,101190.13
2023-07-02T16:29:16.148Z,101185.75
2023-07-02T16:31:49.139Z,101178.94
2023-07-02T16:34:18.665Z,101173.44
2023-07-02T16:36:46.671Z,101181.19
2023-07-02T16:39:15.289Z,101187.25
2023-07-02T16:41:49.137Z,101189.44
2023-07-02T16:44:36.741Z,101181.09
2023-07-02T16:47:03.666Z,101181.72
2023-07-02T16:49:30.272Z,101168.91
2023-07-02T16:51:57.297Z,101170.88
2023-07-02T16:54:25.528Z,101174.16
2023-07-02T16:56:54.645Z,101173.94
2023-07-02T16:59:23.829Z,101175.03
2023-07-02T17:01:54.904Z,101168.09
2023-07-02T17:04:23.594Z,101165.41
2023-07-02T17:06:53.156Z,101161.66
2023-07-02T17:09:33.867Z,101157.69
2023-07-02T17:12:03.283Z,101169.34
2023-07-02T17:14:34.363Z,101163.69
2023-07-02T17:17:05.376Z,101161.88
2023-07-02T17:19:34.820Z,101162.50
2023-07-02T17:22:06.037Z,101161.50
2023-07-02T17:24:35.642Z,101155.06
2023-07-02T17:27:03.338Z,101157.25
2023-07-02T17:29:33.004Z,101154.94
2023-07-02T17:32:02.841Z,101152.56
2023-07-02T17:34:30.684Z,101153.84
2023-07-02T17:36:59.632Z,101144.97
2023-07-02T17:39:27.787Z,101148.41
2023-07-02T17:41:55.747Z,101145.47
2023-07-02T17:44:28.091Z,101148.41
2023-07-02T17:46:57.025Z,101148.22
2023-07-02T17:49:25.955Z,101137.59
2023-07-02T17:51:52.896Z,101143.53
2023-07-02T17:54:20.644Z,101137.97
2023-07-02T17:56:48.407Z,101135.09
2023-07-02T17:59:16.240Z,101140.44
2023-07-02T18:01:44.595Z,101131.91
2023-07-02T18:04:12.218Z,101129.81
2023-07-02T18:06:42.684Z,101128.25
2023-07-02T18:09:10.126Z,101129.81
2023-07-02T18:11:38.369Z,101125.84
2023-07-02T18:14:06.279Z,101126.97
2023-07-02T18:16:33.624Z,101124.66
2023-07-02T18:19:00.788Z,101128.44
2023-07-02T18:21:27.986Z,101131.69
2023-07-02T18:23:54.663Z,101135.94
2023-07-02T18:26:21.218Z,101128.00
2023-07-02T18:28:47.741Z,101132.94
2023-07-02T18:31:14.515Z,101137.47
2023-07-02T18:33:41.095Z,101132.44
2023-07-02T18:36:12.550Z,101131.34
2023-07-02T18:38:39.294Z,101134.31
2023-07-02T18:41:12.460Z,101139.38
2023-07-02T18:43:39.664Z,101131.34
2023-07-02T18:46:06.963Z,101130.84
2023-07-02T18:48:33.959Z,101135.19
2023-07-02T18:51:00.728Z,101125.97
2023-07-02T18:53:27.423Z,101128.94
2023-07-02T18:56:03.909Z,101128.94
2023-07-02T18:58:34.023Z,101130.59
2023-07-02T19:01:06.982Z,101132.75
2023-07-02T19:03:33.826Z,101129.63
2023-07-02T19:06:11.901Z,101128.59
2023-07-02T19:08:38.887Z,101122.47
2023-07-02T19:11:07.503Z,101127.03
2023-07-02T19:13:39.458Z,101122.25
2023-07-02T19:16:06.311Z,101119.28
2023-07-02T19:18:33.008Z,101121.75
2023-07-02T19:21:01.409Z,101118.34
2023-07-02T19:23:32.259Z,101114.59
2023-07-02T19:25:59.480Z,101121.31
2023-07-02T19:28:26.171Z,101113.09
2023-07-02T19:30:57.847Z,101116.84
2023-07-02T19:33:25.228Z,101118.22
2023-07-02T19:35:52.122Z,101123.06
2023-07-02T19:38:18.782Z,101118.50
2023-07-02T19:40:53.834Z,101110.56
2023-07-02T19:43:20.538Z,101116.47
2023-07-02T19:45:47.208Z,101117.34
2023-07-02T19:48:15.692Z,101117.91
2023-07-02T19:50:42.543Z,101115.53
2023-07-02T19:53:09.413Z,101118.50
2023-07-02T19:56:01.786Z,101120.06
2023-07-02T19:58:36.513Z,101122.53
2023-07-02T20:01:03.538Z,101124.97
2023-07-02T20:03:33.053Z,101121.81
2023-07-02T20:06:00.091Z,101127.16
2023-07-02T20:08:27.305Z,101130.13
2023-07-02T20:10:53.949Z,101129.31
2023-07-02T20:13:20.700Z,101132.06
2023-07-02T20:15:48.776Z,101134.22
2023-07-02T20:18:16.512Z,101134.22
2023-07-02T20:20:43.499Z,101126.72
2023-07-02T20:23:10.063Z,101134.22
2023-07-02T20:28:08.248Z,101134.28
2023-07-02T20:30:34.830Z,101122.00
2023-07-02T20:33:04.480Z,101118.31
2023-07-02T20:35:31.132Z,101113.47
2023-07-02T20:37:57.793Z,101112.47
2023-07-02T20:40:24.452Z,101116.72
2023-07-02T20:42:53.584Z,101121.03
2023-07-02T20:45:22.160Z,101121.84
2023-07-02T20:47:48.807Z,101120.53
2023-07-02T20:50:16.165Z,101125.34
2023-07-02T20:52:45.072Z,101126.44
2023-07-02T20:55:11.671Z,101120.84
2023-07-02T20:57:38.249Z,101120.56
2023-07-02T21:00:12.033Z,101133.13
2023-07-02T21:02:43.698Z,101124.91
2023-07-02T21:05:11.504Z,101127.03
2023-07-02T21:07:38.087Z,101128.91
2023-07-02T21:10:04.914Z,101125.44
2023-07-02T21:12:31.455Z,101117.44
2023-07-02T21:14:58.230Z,101122.00
2023-07-02T21:17:24.862Z,101125.75
2023-07-02T21:19:51.476Z,101115.34
2023-07-02T21:22:18.213Z,101119.66
2023-07-02T21:24:49.769Z,101117.28
2023-07-02T21:27:16.644Z,101121.53
2023-07-02T21:29:43.378Z,101126.34
2023-07-02T21:32:10.296Z,101122.88
2023-07-02T21:34:37.096Z,101123.97
2023-07-02T21:37:06.159Z,101117.03
2023-07-02T21:39:32.766Z,101117.31
2023-07-02T21:41:59.323Z,101113.06
2023-07-02T21:44:25.965Z,101114.41
2023-07-02T21:46:53.620Z,101105.34
2023-07-02T21:49:20.359Z,101115.50
2023-07-02T21:51:46.957Z,101115.50
2023-07-02T21:54:13.596Z,101112.56
2023-07-02T21:56:40.168Z,101115.78
2023-07-02T21:59:06.771Z,101119.25
2023-07-02T22:01:33.508Z,101120.84
2023-07-02T22:04:01.246Z,101112.59
2023-07-02T22:06:28.006Z,101115.25
2023-07-02T22:08:54.717Z,101110.50
2023-07-02T22:11:24.204Z,101110.22
2023-07-02T22:13:55.124Z,101114.53
2023-07-02T22:16:22.028Z,101113.44
2023-07-02T22:18:49.317Z,101108.38
2023-07-02T22:21:17.594Z,101109.19
2023-07-02T22:23:46.916Z,101104.44
2023-07-02T22:26:13.779Z,101094.84
2023-07-02T22:28:40.440Z,101102.25
2023-07-02T22:31:07.199Z,101103.41
2023-07-02T22:33:33.943Z,101102.63
2023-07-02T22:36:00.554Z,101096.50
2023-07-02T22:38:27.614Z,101095.41
2023-07-02T22:40:54.348Z,101087.97
2023-07-02T22:43:20.947Z,101093.03
2023-07-02T22:45:47.761Z,101088.53
2023-07-02T22:48:14.442Z,101088.25
2023-07-02T22:50:41.029Z,101084.00
2023-07-02T22:53:07.583Z,101087.47
2023-07-02T22:55:34.197Z,101087.22
2023-07-02T22:58:02.543Z,101082.16
2023-07-02T23:00:29.567Z,101081.38
2023-07-02T23:02:56.264Z,101075.81
2023-07-02T23:05:23.931Z,101079.56
2023-07-02T23:07:50.857Z,101075.00
2023-07-02T23:10:17.835Z,101077.41
2023-07-02T23:12:50.279Z,101072.34
2023-07-02T23:15:19.128Z,101069.97
2023-07-02T23:17:53.472Z,101068.94
2023-07-02T23:20:21.064Z,101059.34
2023-07-02T23:22:51.565Z,101059.91
2023-07-02T23:25:23.960Z,101054.00
2023-07-02T23:27:54.429Z,101059.91
2023-07-02T23:30:26.623Z,101052.97
2023-07-02T23:32:54.521Z,101048.50
2023-07-02T23:35:21.976Z,101042.88
2023-07-02T23:37:51.697Z,101038.63
2023-07-02T23:40:19.088Z,101042.88
2023-07-02T23:42:46.188Z,101035.69
2023-07-02T23:45:14.498Z,101040.28
2023-07-02T23:47:42.139Z,101037.34
2023-07-02T23:50:11.794Z,101034.16
2023-07-02T23:52:39.070Z,101026.16
2023-07-02T23:55:08.052Z,101028.03
2023-07-02T23:57:35.259Z,101026.69
